createdAt,value
2018-07-28T00:00:43.975Z,7.53
2018-07-28T00:03:14.371Z,8.20
2018-07-28T00:05:44.796Z,8.40
2018-07-28T00:08:15.190Z,6.87
2018-07-28T00:11:05.745Z,8.87
2018-07-28T00:13:36.138Z,11.03
2018-07-28T00:16:06.524Z,7.43
2018-07-28T00:18:36.923Z,7.90
2018-07-28T00:21:07.320Z,8.13
2018-07-28T00:23:37.698Z,8.10
2018-07-28T00:26:08.292Z,8.40
2018-07-28T00:28:38.685Z,8.20
2018-07-28T00:31:09.081Z,7.50
2018-07-28T00:33:39.489Z,8.00
2018-07-28T00:36:10.832Z,6.83
2018-07-28T00:38:41.921Z,9.17
2018-07-28T00:41:17.445Z,7.47
2018-07-28T00:43:47.821Z,7.63
2018-07-28T00:46:18.199Z,7.70
2018-07-28T00:48:49.642Z,7.47
2018-07-28T00:51:20.057Z,7.77
2018-07-28T00:53:51.201Z,6.17
2018-07-28T00:56:22.545Z,5.97
2018-07-28T00:58:52.940Z,10.07
2018-07-28T01:01:23.324Z,8.80
2018-07-28T01:03:53.753Z,10.57
2018-07-28T01:06:24.125Z,8.20
2018-07-28T01:08:54.508Z,7.23
2018-07-28T01:11:25.255Z,8.00
2018-07-28T01:13:55.820Z,10.27
2018-07-28T01:16:26.268Z,9.40
2018-07-28T01:18:56.622Z,8.37
2018-07-28T01:21:27.007Z,8.87
2018-07-28T01:23:57.330Z,9.87
2018-07-28T01:26:27.758Z,8.53
2018-07-28T01:28:58.141Z,7.80
2018-07-28T01:31:31.600Z,9.27
2018-07-28T01:34:02.767Z,7.73
2018-07-28T01:36:33.327Z,9.20
2018-07-28T01:39:03.713Z,11.97
2018-07-28T01:41:34.123Z,11.60
2018-07-28T01:44:05.283Z,7.67
2018-07-28T01:46:36.441Z,9.57
2018-07-28T01:49:06.862Z,8.33
2018-07-28T01:51:37.268Z,10.10
2018-07-28T01:54:07.655Z,10.37
2018-07-28T01:56:39.104Z,7.67
2018-07-28T01:59:29.896Z,8.77
2018-07-28T02:02:01.348Z,9.50
2018-07-28T02:04:34.797Z,7.77
2018-07-28T02:07:05.187Z,7.97
2018-07-28T02:09:57.019Z,9.50
2018-07-28T02:12:30.654Z,7.90
2018-07-28T02:15:01.822Z,9.63
2018-07-28T02:17:32.225Z,8.60
2018-07-28T02:20:02.622Z,8.83
2018-07-28T02:22:33.008Z,8.17
2018-07-28T02:25:03.407Z,8.17
2018-07-28T02:27:34.494Z,9.20
2018-07-28T02:30:06.925Z,9.27
2018-07-28T02:32:37.353Z,11.00
2018-07-28T02:35:07.752Z,8.07
2018-07-28T02:37:38.068Z,9.10
2018-07-28T02:40:14.622Z,10.70
2018-07-28T02:42:46.226Z,9.77
2018-07-28T02:45:16.618Z,9.23
2018-07-28T02:47:49.087Z,8.90
2018-07-28T02:50:19.474Z,10.67
2018-07-28T02:52:50.627Z,10.07
2018-07-28T02:55:21.234Z,8.67
2018-07-28T02:57:52.376Z,9.17
2018-07-28T03:00:22.885Z,9.57
2018-07-28T03:02:53.185Z,9.23
2018-07-28T03:05:24.221Z,10.20
2018-07-28T03:07:54.801Z,10.57
2018-07-28T03:10:25.139Z,8.87
2018-07-28T03:12:56.233Z,10.90
2018-07-28T03:15:26.625Z,12.17
2018-07-28T03:17:57.809Z,7.13
2018-07-28T03:20:30.238Z,9.77
2018-07-28T03:23:00.641Z,10.30
2018-07-28T03:25:30.999Z,9.27
2018-07-28T03:28:02.035Z,10.50
2018-07-28T03:30:33.202Z,12.33
2018-07-28T03:33:06.443Z,9.93
2018-07-28T03:35:36.836Z,9.53
2018-07-28T03:38:26.602Z,10.93
2018-07-28T03:40:57.000Z,10.07
2018-07-28T03:43:28.160Z,10.67
2018-07-28T03:45:58.580Z,9.83
2018-07-28T03:48:28.898Z,8.63
2018-07-28T03:53:47.717Z,9.80
2018-07-28T03:56:48.269Z,8.70
2018-07-28T03:59:18.686Z,8.57
2018-07-28T04:01:49.006Z,9.50
2018-07-28T04:04:21.634Z,11.50
2018-07-28T04:06:52.817Z,8.27
2018-07-28T04:09:26.270Z,8.90
2018-07-28T04:11:58.131Z,8.57
2018-07-28T04:14:31.479Z,11.57
2018-07-28T04:17:01.727Z,9.00
2018-07-28T04:19:32.164Z,9.90
2018-07-28T04:22:02.556Z,8.80
2018-07-28T04:24:39.111Z,9.43
2018-07-28T04:27:09.483Z,8.07
2018-07-28T04:29:41.096Z,10.13
2018-07-28T04:32:11.575Z,8.37
2018-07-28T04:34:41.916Z,11.80
2018-07-28T04:37:12.247Z,9.53
2018-07-28T04:39:43.410Z,9.23
2018-07-28T04:42:13.799Z,10.20
2018-07-28T04:44:44.199Z,10.80
2018-07-28T04:47:15.640Z,9.30
2018-07-28T04:49:48.065Z,9.77
2018-07-28T04:52:19.235Z,9.23
2018-07-28T04:54:49.656Z,9.13
2018-07-28T04:57:20.243Z,8.47
2018-07-28T04:59:50.644Z,10.57
2018-07-28T05:02:40.412Z,8.90
2018-07-28T05:05:10.794Z,10.20
2018-07-28T05:07:42.104Z,8.73
2018-07-28T05:10:12.372Z,11.10
2018-07-28T05:12:43.517Z,9.00
2018-07-28T05:15:14.670Z,11.37
2018-07-28T05:17:45.084Z,8.93
2018-07-28T05:20:16.267Z,12.87
2018-07-28T05:22:46.571Z,8.83
2018-07-28T05:25:17.062Z,9.50
2018-07-28T05:27:47.452Z,7.63
2018-07-28T05:30:19.897Z,9.43
2018-07-28T05:32:51.062Z,8.60
2018-07-28T05:35:21.457Z,7.83
2018-07-28T05:37:51.776Z,8.50
2018-07-28T05:40:22.187Z,8.33
2018-07-28T05:42:52.760Z,8.23
2018-07-28T05:45:23.142Z,8.10
2018-07-28T05:47:53.758Z,10.33
2018-07-28T05:50:43.705Z,7.97
2018-07-28T05:53:14.126Z,9.57
2018-07-28T05:55:44.529Z,7.10
2018-07-28T05:58:14.938Z,9.10
2018-07-28T06:00:45.342Z,9.33
2018-07-28T06:03:15.746Z,6.73
2018-07-28T06:05:46.133Z,9.80
2018-07-28T06:08:16.546Z,6.97
2018-07-28T06:10:47.019Z,8.50
2018-07-28T06:13:17.264Z,8.57
2018-07-28T06:15:47.692Z,9.70
2018-07-28T06:18:18.080Z,7.33
2018-07-28T06:20:49.242Z,6.97
2018-07-28T06:23:19.668Z,6.80
2018-07-28T06:25:50.086Z,7.23
2018-07-28T06:28:20.474Z,7.70
2018-07-28T06:30:50.904Z,9.27
2018-07-28T06:33:21.305Z,5.83
2018-07-28T06:35:51.695Z,7.60
2018-07-28T06:38:22.899Z,6.30
2018-07-28T06:40:53.286Z,5.83
2018-07-28T06:43:23.660Z,11.03
2018-07-28T06:45:54.097Z,6.93
2018-07-28T06:48:24.497Z,8.67
2018-07-28T06:50:54.884Z,6.03
2018-07-28T06:53:25.317Z,5.33
2018-07-28T06:55:55.641Z,6.10
2018-07-28T06:58:26.088Z,7.60
2018-07-28T07:00:57.232Z,7.10
2018-07-28T07:03:33.749Z,6.77
2018-07-28T07:06:04.950Z,7.90
2018-07-28T07:08:35.272Z,5.63
2018-07-28T07:11:05.670Z,6.30
2018-07-28T07:13:36.270Z,6.97
2018-07-28T07:16:06.656Z,6.00
2018-07-28T07:18:37.030Z,6.93
2018-07-28T07:21:08.151Z,5.47
2018-07-28T07:23:38.551Z,5.63
2018-07-28T07:26:08.932Z,5.33
2018-07-28T07:28:40.042Z,4.33
2018-07-28T07:31:10.624Z,4.23
2018-07-28T07:33:41.005Z,4.63
2018-07-28T07:36:11.475Z,4.87
2018-07-28T07:38:41.859Z,4.23
2018-07-28T07:41:12.253Z,3.70
2018-07-28T07:43:42.614Z,4.33
2018-07-28T07:46:12.993Z,6.23
2018-07-28T07:48:43.381Z,4.40
2018-07-28T07:51:13.800Z,3.80
2018-07-28T07:53:44.242Z,4.20
2018-07-28T07:58:59.398Z,3.87
2018-07-28T08:01:29.796Z,3.70
2018-07-28T08:04:00.185Z,4.77
2018-07-28T08:06:30.673Z,3.63
2018-07-28T08:09:01.879Z,4.20
2018-07-28T08:11:32.246Z,3.90
2018-07-28T08:14:06.741Z,4.37
2018-07-28T08:16:37.128Z,4.90
2018-07-28T08:19:07.539Z,4.17
2018-07-28T08:21:37.918Z,4.90
2018-07-28T08:24:08.320Z,4.53
2018-07-28T08:26:38.660Z,4.20
2018-07-28T08:29:09.068Z,4.17
2018-07-28T08:31:39.465Z,4.23
2018-07-28T08:34:09.866Z,4.90
2018-07-28T08:36:41.319Z,4.53
2018-07-28T08:39:13.745Z,5.67
2018-07-28T08:41:44.124Z,4.90
2018-07-28T08:44:18.621Z,6.23
2018-07-28T08:46:48.945Z,5.37
2018-07-28T08:49:19.503Z,3.87
2018-07-28T08:51:49.664Z,6.60
2018-07-28T08:54:20.057Z,3.70
2018-07-28T08:56:50.463Z,4.23
2018-07-28T08:59:22.936Z,3.37
2018-07-28T09:01:53.327Z,4.83
2018-07-28T09:04:24.478Z,3.43
2018-07-28T09:06:54.894Z,3.43
2018-07-28T09:09:26.231Z,2.57
2018-07-28T09:11:56.617Z,2.23
2018-07-28T09:14:27.033Z,2.17
2018-07-28T09:16:57.364Z,2.27
2018-07-28T09:19:27.683Z,2.93
2018-07-28T09:21:58.084Z,2.40
2018-07-28T09:24:29.241Z,2.97
2018-07-28T09:27:00.404Z,3.30
2018-07-28T09:29:30.825Z,2.87
2018-07-28T09:32:01.220Z,2.67
2018-07-28T09:34:31.618Z,3.13
2018-07-28T09:37:02.092Z,2.30
2018-07-28T09:39:32.406Z,2.30
2018-07-28T09:42:03.548Z,2.70
2018-07-28T09:44:34.152Z,2.70
2018-07-28T09:47:04.562Z,2.47
2018-07-28T09:49:34.925Z,3.10
2018-07-28T09:52:05.341Z,2.70
2018-07-28T09:54:35.724Z,3.70
2018-07-28T09:57:06.108Z,3.37
2018-07-28T09:59:36.526Z,2.93
2018-07-28T10:02:07.907Z,2.67
2018-07-28T10:04:38.295Z,3.10
2018-07-28T10:07:08.899Z,2.53
2018-07-28T10:09:58.666Z,5.83
2018-07-28T10:12:29.018Z,5.40
2018-07-28T10:15:06.894Z,2.60
2018-07-28T10:17:37.319Z,3.77
2018-07-28T10:20:07.701Z,3.93
2018-07-28T10:22:38.096Z,2.37
2018-07-28T10:25:13.634Z,3.20
2018-07-28T10:27:49.140Z,4.90
2018-07-28T10:30:20.310Z,3.10
2018-07-28T10:32:50.707Z,2.10
2018-07-28T10:35:21.093Z,4.60
2018-07-28T10:37:51.515Z,5.40
2018-07-28T10:40:23.954Z,3.00
2018-07-28T10:42:54.339Z,3.57
2018-07-28T10:45:24.762Z,4.20
2018-07-28T10:47:55.156Z,3.93
2018-07-28T10:50:25.529Z,4.93
2018-07-28T10:52:55.861Z,4.67
2018-07-28T10:55:27.061Z,5.13
2018-07-28T10:57:58.105Z,6.70
2018-07-28T11:00:28.590Z,7.30
2018-07-28T11:03:00.957Z,4.43
2018-07-28T11:05:32.125Z,5.10
2018-07-28T11:08:02.526Z,4.57
2018-07-28T11:10:33.926Z,5.13
2018-07-28T11:13:06.369Z,3.73
2018-07-28T11:15:36.774Z,5.60
2018-07-28T11:18:07.933Z,5.70
2018-07-28T11:20:39.273Z,5.90
2018-07-28T11:23:09.686Z,4.83
2018-07-28T11:25:42.129Z,4.57
2018-07-28T11:28:33.954Z,5.90
2018-07-28T11:31:04.338Z,5.13
2018-07-28T11:37:14.445Z,4.90
2018-07-28T11:40:29.985Z,7.97
2018-07-28T11:43:55.418Z,4.60
2018-07-28T11:46:26.606Z,6.50
2018-07-28T11:48:57.681Z,3.53
2018-07-28T11:51:28.058Z,4.27
2018-07-28T11:53:58.471Z,3.60
2018-07-28T11:56:28.849Z,3.47
2018-07-28T11:58:59.227Z,4.60
2018-07-28T12:01:29.634Z,3.40
2018-07-28T12:04:00.021Z,4.53
2018-07-28T12:06:30.400Z,3.97
2018-07-28T12:09:00.818Z,3.87
2018-07-28T12:11:31.976Z,3.23
2018-07-28T12:14:02.366Z,4.30
2018-07-28T12:16:33.808Z,4.27
2018-07-28T12:19:04.204Z,4.93
2018-07-28T12:21:36.641Z,4.30
2018-07-28T12:24:07.084Z,6.47
2018-07-28T12:26:37.371Z,3.60
2018-07-28T12:29:07.755Z,4.93
2018-07-28T12:31:41.245Z,5.67
2018-07-28T12:34:11.639Z,6.43
2018-07-28T12:36:42.793Z,6.03
2018-07-28T12:39:13.390Z,2.70
2018-07-28T12:41:43.784Z,4.13
2018-07-28T12:44:19.315Z,3.57
2018-07-28T12:46:49.679Z,5.10
2018-07-28T12:49:21.076Z,5.33
2018-07-28T12:51:52.250Z,2.77
2018-07-28T12:54:25.713Z,4.03
2018-07-28T12:56:56.109Z,4.83
2018-07-28T12:59:26.517Z,5.77
2018-07-28T13:01:57.927Z,6.27
2018-07-28T13:04:28.323Z,2.47
2018-07-28T13:06:58.748Z,2.90
2018-07-28T13:09:29.147Z,7.53
2018-07-28T13:12:00.542Z,3.40
2018-07-28T13:14:31.655Z,4.50
2018-07-28T13:17:02.267Z,5.53
2018-07-28T13:19:32.605Z,4.93
2018-07-28T13:22:03.024Z,3.87
2018-07-28T13:24:33.394Z,3.33
2018-07-28T13:27:04.536Z,3.87
2018-07-28T13:29:35.894Z,4.07
2018-07-28T13:32:07.061Z,4.80
2018-07-28T13:34:37.443Z,4.77
2018-07-28T13:37:07.787Z,4.37
2018-07-28T13:39:38.805Z,3.27
2018-07-28T13:42:09.240Z,4.97
2018-07-28T13:44:39.577Z,4.13
2018-07-28T13:47:10.665Z,3.33
2018-07-28T13:49:41.053Z,4.60
2018-07-28T13:52:11.461Z,7.83
2018-07-28T13:54:41.855Z,4.67
2018-07-28T13:57:12.175Z,5.03
2018-07-28T13:59:42.531Z,6.53
2018-07-28T14:02:12.918Z,3.93
2018-07-28T14:04:43.303Z,5.30
2018-07-28T14:07:13.665Z,5.67
2018-07-28T14:09:44.045Z,5.17
2018-07-28T14:12:14.410Z,3.60
2018-07-28T14:14:44.809Z,5.07
2018-07-28T14:17:15.173Z,5.77
2018-07-28T14:19:45.568Z,6.23
2018-07-28T14:22:16.742Z,5.90
2018-07-28T14:24:47.134Z,4.27
2018-07-28T14:27:18.247Z,5.83
2018-07-28T14:29:52.734Z,4.63
2018-07-28T14:32:23.119Z,6.97
2018-07-28T14:34:53.438Z,5.07
2018-07-28T14:37:23.857Z,3.10
2018-07-28T14:39:54.425Z,4.60
2018-07-28T14:42:24.806Z,3.40
2018-07-28T14:44:55.867Z,3.83
2018-07-28T14:47:26.252Z,6.20
2018-07-28T14:50:16.796Z,4.17
2018-07-28T14:52:47.181Z,3.83
2018-07-28T14:55:17.647Z,3.17
2018-07-28T14:57:47.977Z,5.27
2018-07-28T15:00:19.148Z,2.40
2018-07-28T15:02:49.523Z,6.03
2018-07-28T15:05:20.592Z,3.53
2018-07-28T15:07:51.744Z,3.40
2018-07-28T15:10:22.171Z,6.73
2018-07-28T15:12:59.854Z,4.47
2018-07-28T15:15:30.414Z,5.53
2018-07-28T15:18:01.820Z,5.53
2018-07-28T15:20:32.226Z,6.30
2018-07-28T15:23:02.627Z,3.70
2018-07-28T15:25:33.006Z,3.70
2018-07-28T15:28:03.415Z,4.37
2018-07-28T15:30:33.797Z,3.90
2018-07-28T15:33:04.188Z,3.93
2018-07-28T15:35:35.616Z,5.40
2018-07-28T15:38:06.011Z,4.20
2018-07-28T15:40:36.412Z,6.90
2018-07-28T15:43:07.580Z,3.80
2018-07-28T15:45:37.971Z,5.83
2018-07-28T15:48:08.436Z,2.63
2018-07-28T15:50:38.776Z,3.73
2018-07-28T15:53:09.156Z,4.93
2018-07-28T15:58:23.761Z,3.17
2018-07-28T16:00:54.154Z,5.97
2018-07-28T16:03:24.528Z,5.07
2018-07-28T16:05:54.875Z,6.67
2018-07-28T16:08:32.414Z,3.63
2018-07-28T16:11:03.590Z,4.13
2018-07-28T16:13:33.984Z,3.40
2018-07-28T16:16:05.132Z,4.53
2018-07-28T16:18:35.551Z,3.40
2018-07-28T16:21:05.926Z,2.43
2018-07-28T16:23:54.685Z,2.37
2018-07-28T16:26:27.104Z,2.07
2018-07-28T16:28:58.265Z,2.40
2018-07-28T16:31:29.441Z,3.13
2018-07-28T16:34:05.573Z,2.33
2018-07-28T16:36:35.991Z,3.73
2018-07-28T16:39:06.387Z,3.17
2018-07-28T16:41:36.768Z,2.90
2018-07-28T16:44:07.109Z,3.13
2018-07-28T16:46:42.703Z,5.43
2018-07-28T16:49:13.014Z,3.97
2018-07-28T16:51:43.423Z,7.40
2018-07-28T16:54:13.819Z,3.20
2018-07-28T16:56:44.219Z,6.20
2018-07-28T16:59:15.397Z,3.00
2018-07-28T17:01:45.726Z,3.70
2018-07-28T17:04:16.113Z,7.27
2018-07-28T17:06:46.523Z,4.93
2018-07-28T17:09:16.832Z,4.97
2018-07-28T17:11:47.213Z,6.53
2018-07-28T17:14:17.638Z,4.77
2018-07-28T17:16:48.035Z,2.67
2018-07-28T17:19:18.412Z,3.40
2018-07-28T17:21:48.818Z,5.37
2018-07-28T17:24:19.218Z,3.57
2018-07-28T17:26:49.671Z,4.67
2018-07-28T17:29:27.179Z,4.53
2018-07-28T17:31:57.553Z,4.43
2018-07-28T17:34:29.990Z,6.40
2018-07-28T17:37:00.395Z,7.20
2018-07-28T17:39:30.965Z,9.20
2018-07-28T17:42:04.347Z,3.70
2018-07-28T17:44:34.763Z,4.43
2018-07-28T17:47:05.326Z,5.60
2018-07-28T17:49:35.723Z,4.90
2018-07-28T17:52:06.078Z,2.03
2018-07-28T17:54:36.456Z,3.40
2018-07-28T17:57:06.818Z,3.60
2018-07-28T17:59:40.467Z,7.80
2018-07-28T18:02:10.708Z,4.13
2018-07-28T18:04:41.029Z,5.30
2018-07-28T18:07:11.447Z,2.60
2018-07-28T18:09:42.607Z,5.90
2018-07-28T18:12:12.996Z,6.37
2018-07-28T18:14:43.419Z,4.97
2018-07-28T18:17:13.813Z,3.27
2018-07-28T18:19:44.195Z,6.07
2018-07-28T18:22:14.550Z,3.77
2018-07-28T18:24:44.945Z,3.67
2018-07-28T18:27:15.401Z,6.67
2018-07-28T18:29:53.228Z,4.47
2018-07-28T18:32:42.983Z,4.23
2018-07-28T18:35:16.058Z,8.00
2018-07-28T18:37:47.140Z,5.70
2018-07-28T18:40:19.578Z,6.53
2018-07-28T18:42:51.410Z,3.03
2018-07-28T18:45:21.788Z,6.33
2018-07-28T18:47:53.211Z,7.77
2018-07-28T18:50:24.312Z,3.97
2018-07-28T18:52:54.670Z,5.90
2018-07-28T18:55:25.810Z,3.80
2018-07-28T18:57:56.988Z,6.47
2018-07-28T19:00:27.400Z,4.43
2018-07-28T19:02:57.783Z,3.73
2018-07-28T19:05:28.200Z,4.07
2018-07-28T19:07:58.594Z,6.73
2018-07-28T19:10:28.967Z,5.23
2018-07-28T19:12:59.394Z,5.83
2018-07-28T19:15:29.784Z,6.87
2018-07-28T19:18:00.216Z,7.00
2018-07-28T19:20:31.612Z,6.23
2018-07-28T19:23:01.999Z,6.07
2018-07-28T19:25:36.405Z,5.10
2018-07-28T19:28:06.808Z,3.73
2018-07-28T19:30:37.133Z,5.93
2018-07-28T19:33:10.981Z,7.70
2018-07-28T19:36:02.824Z,5.07
2018-07-28T19:38:33.278Z,5.50
2018-07-28T19:41:03.588Z,5.40
2018-07-28T19:43:34.007Z,3.93
2018-07-28T19:46:05.068Z,2.77
2018-07-28T19:48:35.449Z,4.77
2018-07-28T19:51:09.944Z,7.37
2018-07-28T19:53:40.332Z,5.20
2018-07-28T19:56:10.728Z,3.43
2018-07-28T19:58:45.245Z,4.30
2018-07-28T20:01:17.692Z,5.77
2018-07-28T20:03:49.020Z,5.63
2018-07-28T20:06:19.430Z,5.23
2018-07-28T20:11:37.445Z,6.23
2018-07-28T20:14:07.878Z,4.63
2018-07-28T20:16:38.144Z,5.43
2018-07-28T20:19:10.613Z,5.23
2018-07-28T20:21:41.074Z,5.20
2018-07-28T20:24:11.398Z,4.83
2018-07-28T20:26:42.586Z,6.23
2018-07-28T20:29:13.993Z,3.17
2018-07-28T20:31:44.376Z,4.00
2018-07-28T20:34:33.885Z,3.00
2018-07-28T20:37:04.278Z,4.10
2018-07-28T20:39:37.659Z,2.27
2018-07-28T20:42:08.083Z,2.60
2018-07-28T20:44:38.656Z,4.40
2018-07-28T20:47:09.048Z,3.57
2018-07-28T20:49:39.465Z,5.23
2018-07-28T20:52:11.831Z,2.77
2018-07-28T20:54:42.227Z,2.40
2018-07-28T20:57:12.695Z,2.17
2018-07-28T20:59:43.012Z,3.60
2018-07-28T21:02:13.390Z,2.43
2018-07-28T21:04:43.820Z,3.50
2018-07-28T21:07:14.209Z,2.97
2018-07-28T21:09:46.645Z,3.50
2018-07-28T21:12:17.823Z,4.43
2018-07-28T21:14:48.279Z,3.57
2018-07-28T21:17:19.370Z,4.30
2018-07-28T21:19:49.766Z,3.30
2018-07-28T21:22:20.089Z,4.27
2018-07-28T21:24:50.462Z,4.17
2018-07-28T21:27:20.873Z,4.53
2018-07-28T21:29:51.984Z,5.63
2018-07-28T21:32:22.371Z,6.40
2018-07-28T21:34:53.792Z,4.13
2018-07-28T21:37:24.202Z,5.33
2018-07-28T21:39:55.363Z,6.77
2018-07-28T21:42:25.791Z,3.80
2018-07-28T21:44:56.164Z,4.97
2018-07-28T21:47:26.543Z,3.70
2018-07-28T21:49:57.711Z,5.07
2018-07-28T21:52:28.093Z,2.63
2018-07-28T21:54:58.481Z,3.20
2018-07-28T21:57:28.880Z,2.23
2018-07-28T21:59:59.259Z,3.67
2018-07-28T22:02:29.656Z,3.80
2018-07-28T22:05:19.383Z,4.07
2018-07-28T22:07:49.766Z,4.67
2018-07-28T22:10:20.338Z,2.80
2018-07-28T22:12:51.507Z,3.57
2018-07-28T22:15:21.896Z,6.33
2018-07-28T22:17:52.270Z,4.60
2018-07-28T22:20:22.701Z,4.50
2018-07-28T22:22:53.080Z,2.90
2018-07-28T22:25:23.474Z,4.30
2018-07-28T22:27:56.117Z,3.10
2018-07-28T22:30:26.436Z,4.60
2018-07-28T22:32:56.819Z,4.07
2018-07-28T22:35:27.248Z,2.80
2018-07-28T22:37:57.639Z,4.97
2018-07-28T22:40:28.040Z,4.17
2018-07-28T22:42:59.205Z,2.70
2018-07-28T22:45:29.593Z,4.20
2018-07-28T22:47:59.985Z,2.07
2018-07-28T22:50:51.811Z,1.80
2018-07-28T22:53:23.234Z,2.77
2018-07-28T22:55:53.603Z,4.40
2018-07-28T22:58:24.029Z,5.47
2018-07-28T23:00:54.430Z,4.17
2018-07-28T23:03:25.760Z,5.67
2018-07-28T23:05:56.171Z,4.17
2018-07-28T23:08:27.310Z,4.33
2018-07-28T23:10:58.481Z,3.33
2018-07-28T23:13:28.884Z,3.23
2018-07-28T23:16:00.035Z,3.63
2018-07-28T23:18:30.416Z,5.20
2018-07-28T23:21:00.824Z,5.63
2018-07-28T23:23:31.394Z,2.40
2018-07-28T23:26:01.790Z,3.23
2018-07-28T23:28:33.230Z,6.17
2018-07-28T23:31:08.732Z,2.50
2018-07-28T23:33:39.125Z,3.33
2018-07-28T23:36:09.534Z,3.43
2018-07-28T23:38:39.921Z,3.23
2018-07-28T23:41:10.298Z,4.30
2018-07-28T23:43:43.756Z,6.03
2018-07-28T23:46:14.152Z,3.17
2018-07-28T23:48:45.304Z,5.13
2018-07-28T23:51:15.732Z,2.23
2018-07-28T23:53:46.880Z,8.77
2018-07-28T23:56:18.036Z,3.30
2018-07-28T23:58:48.440Z,2.77
